Observation data for Dimmitt on 03/12/2018      Previous  Date  Next       Current Mesonet Observations  Soil Data  Daily Summary Page  Observations in Plain Language
KDMS 120500Z 05005KT 02/M13 A3035 RMK A01 T00191129  RH  032%=      5-min Rain = 0
KDMS 120505Z 05005KT 02/M13 A3035 RMK A01 T00181130  RH  032%=      5-min Rain = 0
KDMS 120510Z 05004KT 02/M13 A3035 RMK A01 T00201130  RH  032%=      5-min Rain = 0
KDMS 120515Z 06004KT 02/M13 A3035 RMK A01 T00221132  RH  031%=      5-min Rain = 0
KDMS 120520Z 06004KT 02/M13 A3035 RMK A01 T00231134  RH  030%=      5-min Rain = 0
KDMS 120525Z 06004KT 03/M14 A3035 RMK A01 T00251135  RH  029%=      5-min Rain = 0
KDMS 120530Z 06003KT 03/M14 A3036 RMK A01 T00251136  RH  029%=      5-min Rain = 0
KDMS 120535Z 07002KT 02/M14 A3036 RMK A01 T00241136  RH  029%=      5-min Rain = 0
KDMS 120540Z 07000KT 01/M13 A3036 RMK A01 T00141131  RH  033%=      5-min Rain = 0
KDMS 120545Z 07000KT 02/M13 A3036 RMK A01 T00181128  RH  033%=      5-min Rain = 0
KDMS 120550Z 07001KT 02/M13 A3036 RMK A01 T00211134  RH  031%=      5-min Rain = 0
KDMS 120555Z 07000KT 02/M13 A3036 RMK A01 T00221125  RH  033%=      5-min Rain = 0
KDMS 120600Z 00000KT 02/M13 A3036 RMK A01 T00221130  RH  031%=      5-min Rain = 0
KDMS 120605Z 00000KT 02/M13 A3036 RMK A01 T00231128  RH  031%=      5-min Rain = 0
KDMS 120610Z 07000KT 02/M13 A3036 RMK A01 T00231134  RH  030%=      5-min Rain = 0
KDMS 120615Z 07001KT 03/M13 A3036 RMK A01 T00251134  RH  030%=      5-min Rain = 0
KDMS 120620Z 07002KT 03/M13 A3036 RMK A01 T00281134  RH  029%=      5-min Rain = 0
KDMS 120625Z 08001KT 03/M13 A3036 RMK A01 T00281133  RH  029%=      5-min Rain = 0
KDMS 120630Z 08001KT 03/M13 A3036 RMK A01 T00261133  RH  030%=      5-min Rain = 0
KDMS 120635Z 08002KT 03/M13 A3036 RMK A01 T00261132  RH  030%=      5-min Rain = 0
KDMS 120640Z 08003KT 03/M13 A3036 RMK A01 T00281131  RH  030%=      5-min Rain = 0
KDMS 120645Z 09003KT 03/M13 A3036 RMK A01 T00281130  RH  030%=      5-min Rain = 0
KDMS 120650Z 09003KT 03/M13 A3036 RMK A01 T00281128  RH  031%=      5-min Rain = 0
KDMS 120655Z 09004KT 03/M13 A3036 RMK A01 T00281127  RH  031%=      5-min Rain = 0
KDMS 120700Z 09004KT 03/M13 A3036 RMK A01 T00291125  RH  031%=      5-min Rain = 0
KDMS 120705Z 08005KT 03/M12 A3036 RMK A01 T00281124  RH  031%=      5-min Rain = 0
KDMS 120710Z 08004KT 03/M12 A3036 RMK A01 T00251123  RH  033%=      5-min Rain = 0
KDMS 120715Z 08004KT 02/M12 A3036 RMK A01 T00241122  RH  033%=      5-min Rain = 0
KDMS 120720Z 08004KT 02/M12 A3036 RMK A01 T00231122  RH  033%=      5-min Rain = 0
KDMS 120725Z 08004KT 02/M12 A3036 RMK A01 T00241121  RH  033%=      5-min Rain = 0
KDMS 120730Z 08004KT 03/M12 A3036 RMK A01 T00251120  RH  033%=      5-min Rain = 0
KDMS 120735Z 08004KT 02/M12 A3036 RMK A01 T00241121  RH  033%=      5-min Rain = 0
KDMS 120740Z 08003KT 03/M12 A3036 RMK A01 T00251120  RH  033%=      5-min Rain = 0
KDMS 120745Z 08003KT 02/M12 A3036 RMK A01 T00241119  RH  034%=      5-min Rain = 0
KDMS 120750Z 08003KT 02/M12 A3036 RMK A01 T00241117  RH  034%=      5-min Rain = 0
KDMS 120755Z 09002KT 02/M12 A3036 RMK A01 T00211116  RH  035%=      5-min Rain = 0
KDMS 120800Z 09001KT 01/M12 A3036 RMK A01 T00121116  RH  038%=      5-min Rain = 0
KDMS 120805Z 11001KT 01/M12 A3036 RMK A01 T00101118  RH  038%=      5-min Rain = 0
KDMS 120810Z 11002KT 01/M11 A3036 RMK A01 T00061113  RH  040%=      5-min Rain = 0
KDMS 120815Z 11002KT 00/M09 A3036 RMK A01 T00041094  RH  048%=      5-min Rain = 0
KDMS 120820Z 11002KT 00/M08 A3036 RMK A01 T00021083  RH  053%=      5-min Rain = 0
KDMS 120825Z 11003KT 00/M10 A3036 RMK A01 T00021097  RH  047%=      5-min Rain = 0
KDMS 120830Z 11003KT 00/M11 A3036 RMK A01 T00021111  RH  042%=      5-min Rain = 0
KDMS 120835Z 11003KT 00/M11 A3036 RMK A01 T00011111  RH  043%=      5-min Rain = 0
KDMS 120840Z 11004KT 01/M11 A3036 RMK A01 T00051110  RH  041%=      5-min Rain = 0
KDMS 120845Z 11004KT 01/M11 A3035 RMK A01 T00091109  RH  041%=      5-min Rain = 0
KDMS 120850Z 11005KT 01/M11 A3035 RMK A01 T00111108  RH  041%=      5-min Rain = 0
KDMS 120855Z 10005KT 01/M11 A3035 RMK A01 T00101107  RH  041%=      5-min Rain = 0
KDMS 120900Z 10005KT 01/M11 A3035 RMK A01 T00081107  RH  042%=      5-min Rain = 0
KDMS 120905Z 10004KT 01/M10 A3034 RMK A01 T00081103  RH  043%=      5-min Rain = 0
KDMS 120910Z 11004KT 01/M10 A3034 RMK A01 T00111101  RH  043%=      5-min Rain = 0
KDMS 120915Z 11003KT 01/M10 A3034 RMK A01 T00141101  RH  042%=      5-min Rain = 0
KDMS 120920Z 11003KT 02/M10 A3034 RMK A01 T00151100  RH  042%=      5-min Rain = 0
KDMS 120925Z 11003KT 01/M10 A3034 RMK A01 T00131104  RH  041%=      5-min Rain = 0
KDMS 120930Z 11004KT 01/M10 A3034 RMK A01 T00101102  RH  043%=      5-min Rain = 0
KDMS 120935Z 11004KT 01/M10 A3034 RMK A01 T00141100  RH  042%=      5-min Rain = 0
KDMS 120940Z 10005KT 01/M10 A3034 RMK A01 T00141099  RH  042%=      5-min Rain = 0
KDMS 120945Z 10005KT 01/M10 A3034 RMK A01 T00131099  RH  043%=      5-min Rain = 0
KDMS 120950Z 10005KT 01/M10 A3034 RMK A01 T00121099  RH  043%=      5-min Rain = 0
KDMS 120955Z 09004KT 01/M10 A3034 RMK A01 T00111100  RH  043%=      5-min Rain = 0
KDMS 121000Z 09005KT 01/M10 A3034 RMK A01 T00101100  RH  043%=      5-min Rain = 0
KDMS 121005Z 09004KT 01/M10 A3034 RMK A01 T00081101  RH  044%=      5-min Rain = 0
KDMS 121010Z 09005KT 01/M10 A3034 RMK A01 T00061101  RH  044%=      5-min Rain = 0
KDMS 121015Z 09005KT 01/M10 A3034 RMK A01 T00071100  RH  044%=      5-min Rain = 0
KDMS 121020Z 09004KT 01/M10 A3034 RMK A01 T00071099  RH  045%=      5-min Rain = 0
KDMS 121025Z 09004KT 01/M10 A3034 RMK A01 T00071099  RH  045%=      5-min Rain = 0
KDMS 121030Z 09004KT 01/M10 A3035 RMK A01 T00081101  RH  044%=      5-min Rain = 0
KDMS 121035Z 09002KT 00/M11 A3035 RMK A01 T00011107  RH  044%=      5-min Rain = 0
KDMS 121040Z 08002KT M01/M11 A3035 RMK A01 T10091105  RH  048%=      5-min Rain = 0
KDMS 121045Z 08003KT M01/M10 A3035 RMK A01 T10081101  RH  049%=      5-min Rain = 0
KDMS 121050Z 08003KT M00/M10 A3035 RMK A01 T10031103  RH  047%=      5-min Rain = 0
KDMS 121055Z 08003KT M00/M10 A3035 RMK A01 T10021102  RH  047%=      5-min Rain = 0
KDMS 121100Z 08002KT M00/M10 A3035 RMK A01 T10041104  RH  046%=      5-min Rain = 0
KDMS 121105Z 08001KT M01/M10 A3035 RMK A01 T10101099  RH  051%=      5-min Rain = 0
KDMS 121110Z 09000KT M01/M10 A3035 RMK A01 T10111099  RH  051%=      5-min Rain = 0
KDMS 121115Z 00000KT M01/M10 A3035 RMK A01 T10141096  RH  054%=      5-min Rain = 0
KDMS 121120Z 26001KT M01/M10 A3035 RMK A01 T10111100  RH  051%=      5-min Rain = 0
KDMS 121125Z 26001KT M02/M10 A3035 RMK A01 T10191104  RH  052%=      5-min Rain = 0
KDMS 121130Z 26001KT M03/M11 A3035 RMK A01 T10271106  RH  054%=      5-min Rain = 0
KDMS 121135Z 26002KT M03/M10 A3035 RMK A01 T10271101  RH  057%=      5-min Rain = 0
KDMS 121140Z 25003KT M02/M10 A3035 RMK A01 T10241100  RH  056%=      5-min Rain = 0
KDMS 121145Z 25002KT M03/M10 A3035 RMK A01 T10281100  RH  057%=      5-min Rain = 0
KDMS 121150Z 24002KT M03/M10 A3035 RMK A01 T10291098  RH  059%=      5-min Rain = 0
KDMS 121155Z 26001KT M03/M10 A3035 RMK A01 T10311101  RH  058%=      5-min Rain = 0
KDMS 121200Z 26000KT M03/M10 A3035 RMK A01 T10341101  RH  059%=      5-min Rain = 0
KDMS 121205Z 24001KT M03/M10 A3035 RMK A01 T10341098  RH  061%=      5-min Rain = 0
KDMS 121210Z 24002KT M03/M10 A3035 RMK A01 T10331097  RH  061%=      5-min Rain = 0
KDMS 121215Z 24002KT M03/M10 A3035 RMK A01 T10271099  RH  058%=      5-min Rain = 0
KDMS 121220Z 24003KT M03/M10 A3035 RMK A01 T10261095  RH  059%=      5-min Rain = 0
KDMS 121225Z 25002KT M02/M09 A3035 RMK A01 T10221089  RH  060%=      5-min Rain = 0
KDMS 121230Z 25001KT M02/M09 A3035 RMK A01 T10241094  RH  058%=      5-min Rain = 0
KDMS 121235Z 24002KT M03/M09 A3036 RMK A01 T10261092  RH  060%=      5-min Rain = 0
KDMS 121240Z 24003KT M03/M09 A3036 RMK A01 T10261093  RH  059%=      5-min Rain = 0
KDMS 121245Z 24003KT M03/M10 A3036 RMK A01 T10291097  RH  059%=      5-min Rain = 0
KDMS 121250Z 24002KT M03/M09 A3036 RMK A01 T10301094  RH  061%=      5-min Rain = 0
KDMS 121255Z 24001KT M03/M09 A3036 RMK A01 T10251090  RH  061%=      5-min Rain = 0
KDMS 121300Z 23002KT M02/M09 A3036 RMK A01 T10221090  RH  059%=      5-min Rain = 0
KDMS 121305Z 22002KT M02/M09 A3036 RMK A01 T10211091  RH  059%=      5-min Rain = 0
KDMS 121310Z 21002KT M02/M09 A3036 RMK A01 T10211091  RH  059%=      5-min Rain = 0
KDMS 121315Z 21002KT M02/M09 A3036 RMK A01 T10201091  RH  058%=      5-min Rain = 0
KDMS 121320Z 20002KT M02/M09 A3036 RMK A01 T10181093  RH  057%=      5-min Rain = 0
KDMS 121325Z 20003KT M02/M09 A3036 RMK A01 T10161092  RH  056%=      5-min Rain = 0
KDMS 121330Z 20003KT M01/M09 A3036 RMK A01 T10111091  RH  054%=      5-min Rain = 0
KDMS 121335Z 21003KT M01/M09 A3036 RMK A01 T10071090  RH  053%=      5-min Rain = 0
KDMS 121340Z 20003KT M00/M09 A3036 RMK A01 T10011086  RH  053%=      5-min Rain = 0
KDMS 121345Z 20002KT 00/M08 A3036 RMK A01 T00031082  RH  053%=      5-min Rain = 0
KDMS 121350Z 20001KT 01/M08 A3036 RMK A01 T00081077  RH  053%=      5-min Rain = 0
KDMS 121355Z 20002KT 01/M08 A3036 RMK A01 T00111075  RH  053%=      5-min Rain = 0
KDMS 121400Z 19002KT 01/M07 A3036 RMK A01 T00131072  RH  053%=      5-min Rain = 0
KDMS 121405Z 19002KT 02/M07 A3036 RMK A01 T00151069  RH  053%=      5-min Rain = 0
KDMS 121410Z 18003KT 02/M07 A3037 RMK A01 T00191067  RH  053%=      5-min Rain = 0
KDMS 121415Z 17004KT 02/M07 A3037 RMK A01 T00231069  RH  051%=      5-min Rain = 0
KDMS 121420Z 17004KT 03/M07 A3037 RMK A01 T00251069  RH  050%=      5-min Rain = 0
KDMS 121425Z 17005KT 03/M07 A3037 RMK A01 T00271068  RH  050%=      5-min Rain = 0
KDMS 121430Z 17006KT 03/M07 A3037 RMK A01 T00301065  RH  050%=      5-min Rain = 0
KDMS 121435Z 18006KT 03/M07 A3037 RMK A01 T00311065  RH  049%=      5-min Rain = 0
KDMS 121440Z 17006KT 03/M06 A3037 RMK A01 T00331064  RH  049%=      5-min Rain = 0
KDMS 121445Z 18006KT 03/M06 A3037 RMK A01 T00341062  RH  049%=      5-min Rain = 0
KDMS 121450Z 17007KT 04/M06 A3038 RMK A01 T00361062  RH  049%=      5-min Rain = 0
KDMS 121455Z 18007KT 04/M06 A3038 RMK A01 T00371060  RH  049%=      5-min Rain = 0
KDMS 121500Z 18007KT 04/M06 A3038 RMK A01 T00391059  RH  049%=      5-min Rain = 0
KDMS 121505Z 19007KT 04/M06 A3038 RMK A01 T00411059  RH  048%=      5-min Rain = 0
KDMS 121510Z 18008KT 04/M06 A3038 RMK A01 T00411062  RH  047%=      5-min Rain = 0
KDMS 121515Z 18007KT 04/M06 A3038 RMK A01 T00431062  RH  046%=      5-min Rain = 0
KDMS 121520Z 20009KT 04/M06 A3038 RMK A01 T00441062  RH  046%=      5-min Rain = 0
KDMS 121525Z 19009KT 04/M06 A3039 RMK A01 T00441061  RH  047%=      5-min Rain = 0
KDMS 121530Z 19009KT 04/M06 A3038 RMK A01 T00441059  RH  047%=      5-min Rain = 0
KDMS 121535Z 18008KT 05/M06 A3038 RMK A01 T00461058  RH  047%=      5-min Rain = 0
KDMS 121540Z 20009KT 05/M06 A3038 RMK A01 T00481058  RH  046%=      5-min Rain = 0
KDMS 121545Z 20008KT 05/M06 A3038 RMK A01 T00491057  RH  046%=      5-min Rain = 0
KDMS 121550Z 19008KT 05/M06 A3038 RMK A01 T00501056  RH  046%=      5-min Rain = 0
KDMS 121555Z 19010KT 05/M06 A3038 RMK A01 T00521057  RH  045%=      5-min Rain = 0
KDMS 121600Z 20010KT 05/M06 A3038 RMK A01 T00531059  RH  044%=      5-min Rain = 0
KDMS 121605Z 20010KT 06/M06 A3038 RMK A01 T00551058  RH  044%=      5-min Rain = 0
KDMS 121610Z 19009KT 06/M06 A3038 RMK A01 T00591056  RH  044%=      5-min Rain = 0
KDMS 121615Z 19010KT 06/M06 A3038 RMK A01 T00601055  RH  043%=      5-min Rain = 0
KDMS 121620Z 19009KT 06/M06 A3038 RMK A01 T00631055  RH  043%=      5-min Rain = 0
KDMS 121625Z 19009KT 07/M05 A3037 RMK A01 T00671054  RH  042%=      5-min Rain = 0
KDMS 121630Z 19009KT 07/M05 A3037 RMK A01 T00701054  RH  041%=      5-min Rain = 0
KDMS 121635Z 19008KT 07/M05 A3037 RMK A01 T00681054  RH  042%=      5-min Rain = 0
KDMS 121640Z 18008KT 07/M06 A3037 RMK A01 T00711055  RH  040%=      5-min Rain = 0
KDMS 121645Z 20007KT 07/M06 A3037 RMK A01 T00741055  RH  040%=      5-min Rain = 0
KDMS 121650Z 19008KT 08/M06 A3037 RMK A01 T00791056  RH  038%=      5-min Rain = 0
KDMS 121655Z 18007KT 08/M06 A3036 RMK A01 T00791058  RH  037%=      5-min Rain = 0
KDMS 121700Z 18008KT 08/M06 A3036 RMK A01 T00801058  RH  037%=      5-min Rain = 0
KDMS 121705Z 19008KT 09/M06 A3036 RMK A01 T00851057  RH  036%=      5-min Rain = 0
KDMS 121710Z 18009KT 09/M06 A3036 RMK A01 T00881057  RH  035%=      5-min Rain = 0
KDMS 121715Z 19009KT 09/M06 A3036 RMK A01 T00871061  RH  035%=      5-min Rain = 0
KDMS 121720Z 20008G13KT 09/M06 A3035 RMK A01 T00891059  RH  035%=      5-min Rain = 0
KDMS 121725Z 22009KT 09/M07 A3035 RMK A01 T00901066  RH  032%=      5-min Rain = 0
KDMS 121730Z 21008G13KT 09/M07 A3035 RMK A01 T00901065  RH  033%=      5-min Rain = 0
KDMS 121735Z 21007G12KT 10/M07 A3035 RMK A01 T00951065  RH  032%=      5-min Rain = 0
KDMS 121740Z 21009KT 10/M07 A3035 RMK A01 T00971071  RH  030%=      5-min Rain = 0
KDMS 121745Z 19009G15KT 10/M07 A3035 RMK A01 T00991067  RH  030%=      5-min Rain = 0
KDMS 121750Z 19009KT 10/M07 A3035 RMK A01 T01011067  RH  030%=      5-min Rain = 0
KDMS 121755Z 21009KT 10/M07 A3035 RMK A01 T01021068  RH  030%=      5-min Rain = 0
KDMS 121800Z 20009KT 10/M07 A3035 RMK A01 T01041068  RH  029%=      5-min Rain = 0
KDMS 121805Z 20010KT 10/M07 A3034 RMK A01 T00981074  RH  029%=      5-min Rain = 0
KDMS 121810Z 22009KT 10/M09 A3034 RMK A01 T00991087  RH  026%=      5-min Rain = 0
KDMS 121815Z 21008KT 10/M08 A3034 RMK A01 T00991083  RH  027%=      5-min Rain = 0
KDMS 121820Z 21008G13KT 10/M09 A3034 RMK A01 T01021092  RH  025%=      5-min Rain = 0
KDMS 121825Z 19009G14KT 11/M09 A3033 RMK A01 T01051087  RH  025%=      5-min Rain = 0
KDMS 121830Z 19008G13KT 11/M08 A3033 RMK A01 T01061079  RH  027%=      5-min Rain = 0
KDMS 121835Z 17009KT 11/M08 A3033 RMK A01 T01091081  RH  026%=      5-min Rain = 0
KDMS 121840Z 16010G15KT 11/M08 A3032 RMK A01 T01131083  RH  024%=      5-min Rain = 0
KDMS 121845Z 16009G14KT 11/M08 A3032 RMK A01 T01101083  RH  025%=      5-min Rain = 0
KDMS 121850Z 15008G14KT 11/M08 A3032 RMK A01 T01091082  RH  025%=      5-min Rain = 0
KDMS 121855Z 18009G15KT 12/M08 A3031 RMK A01 T01151083  RH  024%=      5-min Rain = 0
KDMS 121900Z 18009G16KT 11/M09 A3031 RMK A01 T01141087  RH  024%=      5-min Rain = 0
KDMS 121905Z 17007G12KT 11/M09 A3031 RMK A01 T01111087  RH  024%=      5-min Rain = 0
KDMS 121910Z 17007KT 11/M09 A3031 RMK A01 T01141089  RH  023%=      5-min Rain = 0
KDMS 121915Z 18010G15KT 12/M09 A303 RMK A01 T01191089  RH  022%=      5-min Rain = 0
KDMS 121920Z 17007G13KT 12/M09 A303 RMK A01 T01181094  RH  022%=      5-min Rain = 0
KDMS 121925Z 18009KT 12/M10 A303 RMK A01 T01191095  RH  021%=      5-min Rain = 0
KDMS 121930Z 19007G13KT 12/M09 A3029 RMK A01 T01221090  RH  022%=      5-min Rain = 0
KDMS 121935Z 20008G15KT 12/M09 A3029 RMK A01 T01211090  RH  022%=      5-min Rain = 0
KDMS 121940Z 16007G12KT 12/M09 A3029 RMK A01 T01231089  RH  022%=      5-min Rain = 0
KDMS 121945Z 17005G10KT 12/M09 A3029 RMK A01 T01231089  RH  022%=      5-min Rain = 0
KDMS 121950Z 18007KT 12/M09 A3028 RMK A01 T01231089  RH  022%=      5-min Rain = 0
KDMS 121955Z 23006G11KT 12/M09 A3028 RMK A01 T01231086  RH  022%=      5-min Rain = 0
KDMS 122000Z 22006G12KT 12/M08 A3028 RMK A01 T01221083  RH  023%=      5-min Rain = 0
KDMS 122005Z 15004G9KT 12/M08 A3027 RMK A01 T01211082  RH  023%=      5-min Rain = 0
KDMS 122010Z 19008KT 13/M08 A3027 RMK A01 T01281080  RH  023%=      5-min Rain = 0
KDMS 122015Z 23010KT 13/M08 A3027 RMK A01 T01301080  RH  022%=      5-min Rain = 0
KDMS 122020Z 22008G13KT 13/M08 A3027 RMK A01 T01291083  RH  022%=      5-min Rain = 0
KDMS 122025Z 20006G12KT 13/M08 A3026 RMK A01 T01281084  RH  022%=      5-min Rain = 0
KDMS 122030Z 19009KT 13/M08 A3026 RMK A01 T01311083  RH  022%=      5-min Rain = 0
KDMS 122035Z 17007G13KT 13/M08 A3026 RMK A01 T01291084  RH  022%=      5-min Rain = 0
KDMS 122040Z 20010KT 13/M08 A3026 RMK A01 T01311084  RH  021%=      5-min Rain = 0
KDMS 122045Z 23005G10KT 13/M09 A3025 RMK A01 T01261085  RH  022%=      5-min Rain = 0
KDMS 122050Z 18005G12KT 13/M08 A3025 RMK A01 T01261084  RH  022%=      5-min Rain = 0
KDMS 122055Z 20010KT 13/M08 A3025 RMK A01 T01341079  RH  022%=      5-min Rain = 0
KDMS 122100Z 23007KT 13/M08 A3024 RMK A01 T01331078  RH  022%=      5-min Rain = 0
KDMS 122105Z 17006G11KT 13/M08 A3024 RMK A01 T01331078  RH  022%=      5-min Rain = 0
KDMS 122110Z 16009G14KT 13/M08 A3024 RMK A01 T01331080  RH  022%=      5-min Rain = 0
KDMS 122115Z 18011G16KT 13/M08 A3023 RMK A01 T01341082  RH  022%=      5-min Rain = 0
KDMS 122120Z 17008KT 13/M09 A3023 RMK A01 T01341086  RH  021%=      5-min Rain = 0
KDMS 122125Z 17008G17KT 13/M09 A3023 RMK A01 T01331086  RH  021%=      5-min Rain = 0
KDMS 122130Z 18009G14KT 13/M09 A3022 RMK A01 T01341085  RH  021%=      5-min Rain = 0
KDMS 122135Z 16008KT 13/M09 A3022 RMK A01 T01331086  RH  021%=      5-min Rain = 0
KDMS 122140Z 20009G14KT 14/M09 A3022 RMK A01 T01361088  RH  020%=      5-min Rain = 0
KDMS 122145Z 17010G15KT 13/M09 A3022 RMK A01 T01341088  RH  020%=      5-min Rain = 0
KDMS 122150Z 16009KT 14/M09 A3021 RMK A01 T01361089  RH  020%=      5-min Rain = 0
KDMS 122155Z 17012KT 14/M09 A3021 RMK A01 T01371089  RH  020%=      5-min Rain = 0
KDMS 122200Z 15009KT 14/M09 A3021 RMK A01 T01351091  RH  020%=      5-min Rain = 0
KDMS 122205Z 14008KT 14/M09 A3021 RMK A01 T01371089  RH  020%=      5-min Rain = 0
KDMS 122210Z 19009KT 14/M09 A302 RMK A01 T01371089  RH  020%=      5-min Rain = 0
KDMS 122215Z 19011KT 14/M09 A302 RMK A01 T01381090  RH  020%=      5-min Rain = 0
KDMS 122220Z 17009G15KT 14/M09 A302 RMK A01 T01361090  RH  020%=      5-min Rain = 0
KDMS 122225Z 16004KT 13/M09 A302 RMK A01 T01331090  RH  020%=      5-min Rain = 0
KDMS 122230Z 16008KT 14/M09 A3019 RMK A01 T01361089  RH  020%=      5-min Rain = 0
KDMS 122235Z 16006G11KT 14/M09 A3019 RMK A01 T01361088  RH  020%=      5-min Rain = 0
KDMS 122240Z 19010G15KT 14/M09 A3019 RMK A01 T01391090  RH  020%=      5-min Rain = 0
KDMS 122245Z 20008KT 14/M09 A3019 RMK A01 T01371093  RH  019%=      5-min Rain = 0
KDMS 122250Z 19007G15KT 14/M09 A3019 RMK A01 T01351092  RH  020%=      5-min Rain = 0
KDMS 122255Z 18010G16KT 13/M09 A3019 RMK A01 T01321092  RH  020%=      5-min Rain = 0
KDMS 122300Z 16008KT 13/M09 A3019 RMK A01 T01321093  RH  020%=      5-min Rain = 0
KDMS 122305Z 16009KT 13/M09 A3019 RMK A01 T01311094  RH  020%=      5-min Rain = 0
KDMS 122310Z 14009KT 13/M10 A3019 RMK A01 T01301095  RH  020%=      5-min Rain = 0
KDMS 122315Z 18010KT 13/M10 A3018 RMK A01 T01301098  RH  019%=      5-min Rain = 0
KDMS 122320Z 18010KT 13/M10 A3018 RMK A01 T01301101  RH  019%=      5-min Rain = 0
KDMS 122325Z 17010KT 13/M10 A3018 RMK A01 T01291095  RH  020%=      5-min Rain = 0
KDMS 122330Z 16011KT 13/M10 A3018 RMK A01 T01251095  RH  021%=      5-min Rain = 0
KDMS 122335Z 17010KT 13/M10 A3018 RMK A01 T01251097  RH  020%=      5-min Rain = 0
KDMS 122340Z 16009KT 12/M10 A3018 RMK A01 T01241096  RH  020%=      5-min Rain = 0
KDMS 122345Z 16008KT 12/M09 A3018 RMK A01 T01221093  RH  021%=      5-min Rain = 0
KDMS 122350Z 16010KT 12/M09 A3018 RMK A01 T01241093  RH  021%=      5-min Rain = 0
KDMS 122355Z 16009KT 12/M09 A3018 RMK A01 T01241092  RH  021%=      5-min Rain = 0
KDMS 130000Z 15011KT 13/M10 A3018 RMK A01 T01251096  RH  020%=      5-min Rain = 0
KDMS 130005Z 16010KT 12/M10 A3019 RMK A01 T01241095  RH  021%=      5-min Rain = 0
KDMS 130010Z 16010KT 12/M10 A3019 RMK A01 T01241096  RH  020%=      5-min Rain = 0
KDMS 130015Z 15009KT 12/M10 A3019 RMK A01 T01221096  RH  021%=      5-min Rain = 0
KDMS 130020Z 15010KT 12/M09 A3018 RMK A01 T01211094  RH  021%=      5-min Rain = 0
KDMS 130025Z 16010KT 12/M09 A3018 RMK A01 T01201094  RH  021%=      5-min Rain = 0
KDMS 130030Z 16009KT 12/M09 A3019 RMK A01 T01191092  RH  022%=      5-min Rain = 0
KDMS 130035Z 16009KT 12/M09 A3019 RMK A01 T01161091  RH  022%=      5-min Rain = 0
KDMS 130040Z 16009KT 11/M09 A3019 RMK A01 T01141093  RH  022%=      5-min Rain = 0
KDMS 130045Z 15010KT 11/M09 A3019 RMK A01 T01111093  RH  023%=      5-min Rain = 0
KDMS 130050Z 15008KT 11/M09 A3019 RMK A01 T01081092  RH  024%=      5-min Rain = 0
KDMS 130055Z 15009KT 10/M09 A3019 RMK A01 T01041091  RH  024%=      5-min Rain = 0
KDMS 130100Z 15009KT 10/M09 A3019 RMK A01 T01011089  RH  025%=      5-min Rain = 0
KDMS 130105Z 15008KT 10/M09 A3019 RMK A01 T00981086  RH  026%=      5-min Rain = 0
KDMS 130110Z 15008KT 09/M09 A3019 RMK A01 T00931085  RH  027%=      5-min Rain = 0
KDMS 130115Z 15008KT 09/M08 A302 RMK A01 T00891084  RH  028%=      5-min Rain = 0
KDMS 130120Z 15008KT 09/M08 A302 RMK A01 T00861083  RH  029%=      5-min Rain = 0
KDMS 130125Z 16008KT 08/M08 A302 RMK A01 T00821083  RH  030%=      5-min Rain = 0
KDMS 130130Z 15008KT 08/M09 A302 RMK A01 T00811085  RH  030%=      5-min Rain = 0
KDMS 130135Z 15008KT 08/M09 A302 RMK A01 T00791085  RH  030%=      5-min Rain = 0
KDMS 130140Z 15009KT 08/M09 A302 RMK A01 T00761085  RH  031%=      5-min Rain = 0
KDMS 130145Z 15009KT 08/M09 A302 RMK A01 T00751085  RH  031%=      5-min Rain = 0
KDMS 130150Z 15009KT 08/M09 A302 RMK A01 T00761085  RH  031%=      5-min Rain = 0
KDMS 130155Z 15009KT 08/M08 A302 RMK A01 T00751083  RH  031%=      5-min Rain = 0
KDMS 130200Z 15009KT 07/M08 A302 RMK A01 T00721082  RH  033%=      5-min Rain = 0
KDMS 130205Z 14007KT 07/M08 A302 RMK A01 T00681083  RH  033%=      5-min Rain = 0
KDMS 130210Z 15007KT 06/M09 A302 RMK A01 T00631087  RH  033%=      5-min Rain = 0
KDMS 130215Z 14007KT 06/M09 A302 RMK A01 T00601090  RH  033%=      5-min Rain = 0
KDMS 130220Z 15007KT 06/M09 A302 RMK A01 T00601092  RH  033%=      5-min Rain = 0
KDMS 130225Z 15007KT 06/M09 A302 RMK A01 T00591094  RH  032%=      5-min Rain = 0
KDMS 130230Z 15008KT 06/M09 A302 RMK A01 T00571094  RH  033%=      5-min Rain = 0
KDMS 130235Z 15008KT 06/M09 A302 RMK A01 T00571094  RH  033%=      5-min Rain = 0
KDMS 130240Z 15008KT 06/M09 A302 RMK A01 T00571093  RH  033%=      5-min Rain = 0
KDMS 130245Z 16009KT 06/M09 A302 RMK A01 T00591090  RH  033%=      5-min Rain = 0
KDMS 130250Z 16009KT 06/M09 A3021 RMK A01 T00621086  RH  034%=      5-min Rain = 0
KDMS 130255Z 15009KT 06/M08 A3021 RMK A01 T00621084  RH  034%=      5-min Rain = 0
KDMS 130300Z 15009KT 06/M08 A3021 RMK A01 T00611084  RH  035%=      5-min Rain = 0
KDMS 130305Z 15009KT 06/M08 A3021 RMK A01 T00581084  RH  035%=      5-min Rain = 0
KDMS 130310Z 15009KT 06/M09 A3021 RMK A01 T00551085  RH  036%=      5-min Rain = 0
KDMS 130315Z 16009KT 05/M09 A3021 RMK A01 T00531086  RH  036%=      5-min Rain = 0
KDMS 130320Z 16008KT 05/M09 A3021 RMK A01 T00521086  RH  036%=      5-min Rain = 0
KDMS 130325Z 16009KT 05/M08 A3021 RMK A01 T00511084  RH  037%=      5-min Rain = 0
KDMS 130330Z 16009KT 05/M08 A3021 RMK A01 T00511083  RH  037%=      5-min Rain = 0
KDMS 130335Z 16009KT 05/M08 A3021 RMK A01 T00511082  RH  038%=      5-min Rain = 0
KDMS 130340Z 16009KT 05/M08 A3021 RMK A01 T00511081  RH  038%=      5-min Rain = 0
KDMS 130345Z 16009KT 05/M08 A3021 RMK A01 T00511080  RH  038%=      5-min Rain = 0
KDMS 130350Z 16009KT 05/M08 A3021 RMK A01 T00521080  RH  038%=      5-min Rain = 0
KDMS 130355Z 16010KT 05/M08 A3021 RMK A01 T00531080  RH  037%=      5-min Rain = 0
KDMS 130400Z 16010KT 05/M08 A3021 RMK A01 T00531081  RH  038%=      5-min Rain = 0
KDMS 130405Z 16010KT 05/M08 A3021 RMK A01 T00511081  RH  038%=      5-min Rain = 0
KDMS 130410Z 16009KT 05/M08 A3021 RMK A01 T00511081  RH  038%=      5-min Rain = 0
KDMS 130415Z 16009KT 05/M08 A3021 RMK A01 T00501080  RH  038%=      5-min Rain = 0
KDMS 130420Z 16010KT 05/M08 A3021 RMK A01 T00491079  RH  039%=      5-min Rain = 0
KDMS 130425Z 16010KT 05/M08 A3021 RMK A01 T00481079  RH  039%=      5-min Rain = 0
KDMS 130430Z 16009KT 05/M08 A3021 RMK A01 T00471079  RH  040%=      5-min Rain = 0
KDMS 130435Z 16008KT 04/M08 A3021 RMK A01 T00441078  RH  041%=      5-min Rain = 0
KDMS 130440Z 16008KT 04/M08 A3021 RMK A01 T00401078  RH  042%=      5-min Rain = 0
KDMS 130445Z 15008KT 04/M08 A3021 RMK A01 T00361079  RH  043%=      5-min Rain = 0
KDMS 130450Z 15009KT 03/M08 A3021 RMK A01 T00341081  RH  043%=      5-min Rain = 0
KDMS 130455Z 15008KT 03/M08 A3021 RMK A01 T00321082  RH  043%=      5-min Rain = 0

Page generated in 0.0091 seconds.